sensor_id;sensor_type;location;lat;lon;timestamp;P1;durP1;ratioP1;P2;durP2;ratioP2
10432;SDS011;5263;48.680;9.004;2024-02-15T00:00:28;2.20;;;0.50;;
10432;SDS011;5263;48.680;9.004;2024-02-15T00:02:54;1.67;;;0.50;;
10432;SDS011;5263;48.680;9.004;2024-02-15T00:05:23;1.00;;;0.50;;
10432;SDS011;5263;48.680;9.004;2024-02-15T00:07:48;1.97;;;0.40;;
10432;SDS011;5263;48.680;9.004;2024-02-15T00:10:14;1.83;;;0.30;;
10432;SDS011;5263;48.680;9.004;2024-02-15T00:12:40;1.53;;;0.37;;
10432;SDS011;5263;48.680;9.004;2024-02-15T00:15:06;1.33;;;0.40;;
10432;SDS011;5263;48.680;9.004;2024-02-15T00:17:31;2.07;;;0.40;;
10432;SDS011;5263;48.680;9.004;2024-02-15T00:20:00;3.13;;;0.40;;
10432;SDS011;5263;48.680;9.004;2024-02-15T00:22:29;2.57;;;0.90;;
10432;SDS011;5263;48.680;9.004;2024-02-15T00:24:55;2.73;;;0.50;;
10432;SDS011;5263;48.680;9.004;2024-02-15T00:27:20;2.00;;;0.53;;
10432;SDS011;5263;48.680;9.004;2024-02-15T00:29:46;2.10;;;0.50;;
10432;SDS011;5263;48.680;9.004;2024-02-15T00:32:11;1.63;;;0.40;;
10432;SDS011;5263;48.680;9.004;2024-02-15T00:34:37;0.83;;;0.50;;
10432;SDS011;5263;48.680;9.004;2024-02-15T00:37:05;1.47;;;0.30;;
10432;SDS011;5263;48.680;9.004;2024-02-15T00:39:31;1.57;;;0.47;;
10432;SDS011;5263;48.680;9.004;2024-02-15T00:41:57;1.60;;;0.43;;
10432;SDS011;5263;48.680;9.004;2024-02-15T00:44:25;2.10;;;0.50;;
10432;SDS011;5263;48.680;9.004;2024-02-15T00:46:53;0.93;;;0.40;;
10432;SDS011;5263;48.680;9.004;2024-02-15T00:49:19;2.43;;;0.57;;
10432;SDS011;5263;48.680;9.004;2024-02-15T00:51:45;0.80;;;0.40;;
10432;SDS011;5263;48.680;9.004;2024-02-15T00:54:11;1.30;;;0.80;;
10432;SDS011;5263;48.680;9.004;2024-02-15T00:56:37;2.10;;;0.50;;
10432;SDS011;5263;48.680;9.004;2024-02-15T00:59:03;1.17;;;0.50;;
10432;SDS011;5263;48.680;9.004;2024-02-15T01:01:28;0.50;;;0.50;;
10432;SDS011;5263;48.680;9.004;2024-02-15T01:03:54;3.50;;;0.90;;
10432;SDS011;5263;48.680;9.004;2024-02-15T01:06:19;1.87;;;0.50;;
10432;SDS011;5263;48.680;9.004;2024-02-15T01:08:45;6.53;;;0.53;;
10432;SDS011;5263;48.680;9.004;2024-02-15T01:11:10;1.27;;;0.60;;
10432;SDS011;5263;48.680;9.004;2024-02-15T01:13:36;2.73;;;0.80;;
10432;SDS011;5263;48.680;9.004;2024-02-15T01:16:02;1.20;;;0.60;;
10432;SDS011;5263;48.680;9.004;2024-02-15T01:18:28;1.40;;;0.87;;
10432;SDS011;5263;48.680;9.004;2024-02-15T01:20:55;3.70;;;0.80;;
10432;SDS011;5263;48.680;9.004;2024-02-15T01:23:20;2.93;;;0.50;;
10432;SDS011;5263;48.680;9.004;2024-02-15T01:25:47;1.10;;;0.50;;
10432;SDS011;5263;48.680;9.004;2024-02-15T01:28:13;3.13;;;0.70;;
10432;SDS011;5263;48.680;9.004;2024-02-15T01:30:38;3.50;;;0.60;;
10432;SDS011;5263;48.680;9.004;2024-02-15T01:33:04;0.80;;;0.40;;
10432;SDS011;5263;48.680;9.004;2024-02-15T01:35:30;3.03;;;0.90;;
10432;SDS011;5263;48.680;9.004;2024-02-15T01:37:55;1.43;;;0.80;;
10432;SDS011;5263;48.680;9.004;2024-02-15T01:40:21;1.00;;;0.60;;
10432;SDS011;5263;48.680;9.004;2024-02-15T01:42:47;1.20;;;0.90;;
10432;SDS011;5263;48.680;9.004;2024-02-15T01:45:14;1.73;;;0.63;;
10432;SDS011;5263;48.680;9.004;2024-02-15T01:47:40;0.63;;;0.60;;
10432;SDS011;5263;48.680;9.004;2024-02-15T01:50:07;3.80;;;0.60;;
10432;SDS011;5263;48.680;9.004;2024-02-15T01:52:37;1.17;;;0.50;;
10432;SDS011;5263;48.680;9.004;2024-02-15T01:55:03;1.97;;;0.50;;
10432;SDS011;5263;48.680;9.004;2024-02-15T01:57:34;2.87;;;0.60;;
10432;SDS011;5263;48.680;9.004;2024-02-15T02:00:04;2.20;;;0.50;;
10432;SDS011;5263;48.680;9.004;2024-02-15T02:02:31;0.93;;;0.50;;
10432;SDS011;5263;48.680;9.004;2024-02-15T02:04:59;0.73;;;0.60;;
10432;SDS011;5263;48.680;9.004;2024-02-15T02:07:25;3.30;;;0.70;;
10432;SDS011;5263;48.680;9.004;2024-02-15T02:09:51;1.87;;;0.67;;
10432;SDS011;5263;48.680;9.004;2024-02-15T02:12:16;0.60;;;0.60;;
10432;SDS011;5263;48.680;9.004;2024-02-15T02:14:43;0.60;;;0.60;;
10432;SDS011;5263;48.680;9.004;2024-02-15T02:17:12;1.60;;;0.60;;
10432;SDS011;5263;48.680;9.004;2024-02-15T02:19:38;0.43;;;0.43;;
10432;SDS011;5263;48.680;9.004;2024-02-15T02:22:04;3.00;;;0.90;;
10432;SDS011;5263;48.680;9.004;2024-02-15T02:24:31;1.50;;;0.70;;
10432;SDS011;5263;48.680;9.004;2024-02-15T02:27:03;2.20;;;0.60;;
10432;SDS011;5263;48.680;9.004;2024-02-15T02:29:30;2.67;;;0.53;;
10432;SDS011;5263;48.680;9.004;2024-02-15T02:31:56;1.53;;;0.87;;
10432;SDS011;5263;48.680;9.004;2024-02-15T02:34:22;1.63;;;0.97;;
10432;SDS011;5263;48.680;9.004;2024-02-15T02:36:47;3.03;;;0.50;;
10432;SDS011;5263;48.680;9.004;2024-02-15T02:39:15;1.70;;;0.57;;
10432;SDS011;5263;48.680;9.004;2024-02-15T02:41:41;1.87;;;0.50;;
10432;SDS011;5263;48.680;9.004;2024-02-15T02:44:07;0.90;;;0.60;;
10432;SDS011;5263;48.680;9.004;2024-02-15T02:46:33;0.97;;;0.50;;
10432;SDS011;5263;48.680;9.004;2024-02-15T02:48:58;1.27;;;0.50;;
10432;SDS011;5263;48.680;9.004;2024-02-15T02:51:24;1.50;;;0.70;;
10432;SDS011;5263;48.680;9.004;2024-02-15T02:53:50;1.90;;;0.53;;
10432;SDS011;5263;48.680;9.004;2024-02-15T02:56:15;0.80;;;0.50;;
10432;SDS011;5263;48.680;9.004;2024-02-15T02:58:41;0.60;;;0.60;;
10432;SDS011;5263;48.680;9.004;2024-02-15T03:01:09;1.47;;;0.50;;
10432;SDS011;5263;48.680;9.004;2024-02-15T03:03:38;3.33;;;0.60;;
10432;SDS011;5263;48.680;9.004;2024-02-15T03:06:04;1.53;;;0.60;;
10432;SDS011;5263;48.680;9.004;2024-02-15T03:08:31;2.07;;;0.50;;
10432;SDS011;5263;48.680;9.004;2024-02-15T03:10:56;0.70;;;0.60;;
10432;SDS011;5263;48.680;9.004;2024-02-15T03:13:22;1.10;;;0.70;;
10432;SDS011;5263;48.680;9.004;2024-02-15T03:15:48;1.10;;;0.60;;
10432;SDS011;5263;48.680;9.004;2024-02-15T03:18:16;1.43;;;0.60;;
10432;SDS011;5263;48.680;9.004;2024-02-15T03:20:42;0.60;;;0.60;;
10432;SDS011;5263;48.680;9.004;2024-02-15T03:23:08;2.77;;;0.70;;
10432;SDS011;5263;48.680;9.004;2024-02-15T03:25:34;2.27;;;0.90;;
10432;SDS011;5263;48.680;9.004;2024-02-15T03:28:00;0.97;;;0.50;;
10432;SDS011;5263;48.680;9.004;2024-02-15T03:30:30;0.93;;;0.60;;
10432;SDS011;5263;48.680;9.004;2024-02-15T03:32:59;0.87;;;0.50;;
10432;SDS011;5263;48.680;9.004;2024-02-15T03:35:25;1.33;;;0.60;;
10432;SDS011;5263;48.680;9.004;2024-02-15T03:37:53;0.97;;;0.67;;
10432;SDS011;5263;48.680;9.004;2024-02-15T03:40:19;1.47;;;0.70;;
10432;SDS011;5263;48.680;9.004;2024-02-15T03:42:46;3.23;;;0.90;;
10432;SDS011;5263;48.680;9.004;2024-02-15T03:45:12;1.43;;;0.67;;
10432;SDS011;5263;48.680;9.004;2024-02-15T03:47:37;1.73;;;0.80;;
10432;SDS011;5263;48.680;9.004;2024-02-15T03:50:04;1.90;;;0.67;;
10432;SDS011;5263;48.680;9.004;2024-02-15T03:52:30;1.30;;;0.70;;
10432;SDS011;5263;48.680;9.004;2024-02-15T03:54:56;0.63;;;0.63;;
10432;SDS011;5263;48.680;9.004;2024-02-15T03:57:23;1.47;;;0.60;;
10432;SDS011;5263;48.680;9.004;2024-02-15T03:59:49;2.40;;;0.80;;
10432;SDS011;5263;48.680;9.004;2024-02-15T04:02:19;3.23;;;1.20;;
10432;SDS011;5263;48.680;9.004;2024-02-15T04:04:45;1.53;;;0.80;;
10432;SDS011;5263;48.680;9.004;2024-02-15T04:07:15;0.60;;;0.60;;
10432;SDS011;5263;48.680;9.004;2024-02-15T04:09:41;3.03;;;0.70;;
10432;SDS011;5263;48.680;9.004;2024-02-15T04:12:07;0.70;;;0.67;;
10432;SDS011;5263;48.680;9.004;2024-02-15T04:14:33;1.27;;;0.73;;
10432;SDS011;5263;48.680;9.004;2024-02-15T04:16:59;1.60;;;0.80;;
10432;SDS011;5263;48.680;9.004;2024-02-15T04:19:26;2.00;;;0.70;;
10432;SDS011;5263;48.680;9.004;2024-02-15T04:21:52;2.07;;;0.77;;
10432;SDS011;5263;48.680;9.004;2024-02-15T04:24:20;2.13;;;0.80;;
10432;SDS011;5263;48.680;9.004;2024-02-15T04:26:46;1.23;;;0.70;;
10432;SDS011;5263;48.680;9.004;2024-02-15T04:29:13;1.77;;;0.63;;
10432;SDS011;5263;48.680;9.004;2024-02-15T04:31:40;0.50;;;0.50;;
10432;SDS011;5263;48.680;9.004;2024-02-15T04:34:07;2.10;;;0.70;;
10432;SDS011;5263;48.680;9.004;2024-02-15T04:36:34;4.27;;;0.77;;
10432;SDS011;5263;48.680;9.004;2024-02-15T04:39:00;0.90;;;0.70;;
10432;SDS011;5263;48.680;9.004;2024-02-15T04:41:29;1.80;;;0.70;;
10432;SDS011;5263;48.680;9.004;2024-02-15T04:43:54;2.03;;;0.63;;
10432;SDS011;5263;48.680;9.004;2024-02-15T04:46:20;4.07;;;1.20;;
10432;SDS011;5263;48.680;9.004;2024-02-15T04:48:50;1.57;;;0.70;;
10432;SDS011;5263;48.680;9.004;2024-02-15T04:51:16;1.23;;;0.60;;
10432;SDS011;5263;48.680;9.004;2024-02-15T04:53:42;2.10;;;0.90;;
10432;SDS011;5263;48.680;9.004;2024-02-15T04:56:08;1.13;;;0.57;;
10432;SDS011;5263;48.680;9.004;2024-02-15T04:58:42;1.93;;;0.80;;
10432;SDS011;5263;48.680;9.004;2024-02-15T05:01:13;2.23;;;0.70;;
10432;SDS011;5263;48.680;9.004;2024-02-15T05:03:39;3.87;;;0.60;;
10432;SDS011;5263;48.680;9.004;2024-02-15T05:06:05;1.60;;;1.13;;
10432;SDS011;5263;48.680;9.004;2024-02-15T05:08:33;0.97;;;0.67;;
10432;SDS011;5263;48.680;9.004;2024-02-15T05:11:00;1.30;;;0.90;;
10432;SDS011;5263;48.680;9.004;2024-02-15T05:13:25;2.43;;;0.93;;
10432;SDS011;5263;48.680;9.004;2024-02-15T05:15:51;0.63;;;0.63;;
10432;SDS011;5263;48.680;9.004;2024-02-15T05:18:16;3.23;;;0.90;;
10432;SDS011;5263;48.680;9.004;2024-02-15T05:20:43;1.33;;;0.90;;
10432;SDS011;5263;48.680;9.004;2024-02-15T05:23:09;3.03;;;0.80;;
10432;SDS011;5263;48.680;9.004;2024-02-15T05:25:34;2.57;;;1.00;;
10432;SDS011;5263;48.680;9.004;2024-02-15T05:28:00;1.00;;;0.80;;
10432;SDS011;5263;48.680;9.004;2024-02-15T05:30:26;3.37;;;0.93;;
10432;SDS011;5263;48.680;9.004;2024-02-15T05:32:52;3.00;;;0.87;;
10432;SDS011;5263;48.680;9.004;2024-02-15T05:35:18;1.10;;;0.90;;
10432;SDS011;5263;48.680;9.004;2024-02-15T05:37:43;1.93;;;1.00;;
10432;SDS011;5263;48.680;9.004;2024-02-15T05:40:10;3.20;;;1.67;;
10432;SDS011;5263;48.680;9.004;2024-02-15T05:42:41;2.63;;;1.17;;
10432;SDS011;5263;48.680;9.004;2024-02-15T05:47:54;3.37;;;1.00;;
10432;SDS011;5263;48.680;9.004;2024-02-15T05:50:20;1.47;;;1.10;;
10432;SDS011;5263;48.680;9.004;2024-02-15T05:52:46;2.77;;;1.00;;
10432;SDS011;5263;48.680;9.004;2024-02-15T05:55:12;1.23;;;0.80;;
10432;SDS011;5263;48.680;9.004;2024-02-15T05:57:42;1.00;;;0.90;;
10432;SDS011;5263;48.680;9.004;2024-02-15T06:00:08;1.50;;;1.10;;
10432;SDS011;5263;48.680;9.004;2024-02-15T06:02:35;3.93;;;2.27;;
10432;SDS011;5263;48.680;9.004;2024-02-15T06:05:00;2.97;;;1.83;;
10432;SDS011;5263;48.680;9.004;2024-02-15T06:07:29;1.00;;;0.90;;
10432;SDS011;5263;48.680;9.004;2024-02-15T06:09:56;1.10;;;1.00;;
10432;SDS011;5263;48.680;9.004;2024-02-15T06:12:29;1.00;;;0.90;;
10432;SDS011;5263;48.680;9.004;2024-02-15T06:14:55;1.90;;;1.00;;
10432;SDS011;5263;48.680;9.004;2024-02-15T06:17:20;4.10;;;1.23;;
10432;SDS011;5263;48.680;9.004;2024-02-15T06:19:46;1.53;;;1.00;;
10432;SDS011;5263;48.680;9.004;2024-02-15T06:22:12;1.23;;;0.90;;
10432;SDS011;5263;48.680;9.004;2024-02-15T06:24:37;3.67;;;1.20;;
10432;SDS011;5263;48.680;9.004;2024-02-15T06:27:04;0.97;;;0.97;;
10432;SDS011;5263;48.680;9.004;2024-02-15T06:29:30;2.37;;;1.63;;
10432;SDS011;5263;48.680;9.004;2024-02-15T06:32:14;9.63;;;4.30;;
10432;SDS011;5263;48.680;9.004;2024-02-15T06:34:58;6.33;;;2.30;;
10432;SDS011;5263;48.680;9.004;2024-02-15T06:37:43;8.93;;;2.87;;
10432;SDS011;5263;48.680;9.004;2024-02-15T06:40:27;8.07;;;2.97;;
10432;SDS011;5263;48.680;9.004;2024-02-15T06:42:53;9.20;;;3.00;;
10432;SDS011;5263;48.680;9.004;2024-02-15T06:45:19;6.17;;;2.83;;
10432;SDS011;5263;48.680;9.004;2024-02-15T06:47:45;11.07;;;3.87;;
10432;SDS011;5263;48.680;9.004;2024-02-15T06:50:14;9.23;;;3.53;;
10432;SDS011;5263;48.680;9.004;2024-02-15T06:52:40;2.90;;;1.47;;
10432;SDS011;5263;48.680;9.004;2024-02-15T06:55:06;2.67;;;1.53;;
10432;SDS011;5263;48.680;9.004;2024-02-15T06:57:34;3.40;;;1.40;;
10432;SDS011;5263;48.680;9.004;2024-02-15T07:00:05;2.30;;;1.60;;
10432;SDS011;5263;48.680;9.004;2024-02-15T07:02:39;5.87;;;1.80;;
10432;SDS011;5263;48.680;9.004;2024-02-15T07:05:04;3.37;;;1.50;;
10432;SDS011;5263;48.680;9.004;2024-02-15T07:07:31;5.23;;;1.93;;
10432;SDS011;5263;48.680;9.004;2024-02-15T07:09:57;2.83;;;1.60;;
10432;SDS011;5263;48.680;9.004;2024-02-15T07:12:23;3.10;;;1.70;;
10432;SDS011;5263;48.680;9.004;2024-02-15T07:14:49;3.53;;;1.60;;
10432;SDS011;5263;48.680;9.004;2024-02-15T07:17:15;2.27;;;1.67;;
10432;SDS011;5263;48.680;9.004;2024-02-15T07:19:44;3.70;;;1.80;;
10432;SDS011;5263;48.680;9.004;2024-02-15T07:22:09;2.87;;;1.53;;
10432;SDS011;5263;48.680;9.004;2024-02-15T07:24:36;5.70;;;1.10;;
10432;SDS011;5263;48.680;9.004;2024-02-15T07:27:03;3.07;;;1.20;;
10432;SDS011;5263;48.680;9.004;2024-02-15T07:29:30;3.17;;;1.13;;
10432;SDS011;5263;48.680;9.004;2024-02-15T07:31:57;2.63;;;1.23;;
10432;SDS011;5263;48.680;9.004;2024-02-15T07:34:25;4.67;;;0.90;;
10432;SDS011;5263;48.680;9.004;2024-02-15T07:36:51;1.77;;;1.00;;
10432;SDS011;5263;48.680;9.004;2024-02-15T07:39:17;1.83;;;1.00;;
10432;SDS011;5263;48.680;9.004;2024-02-15T07:41:49;2.63;;;1.40;;
10432;SDS011;5263;48.680;9.004;2024-02-15T07:44:16;1.20;;;1.10;;
10432;SDS011;5263;48.680;9.004;2024-02-15T07:46:42;2.57;;;1.40;;
10432;SDS011;5263;48.680;9.004;2024-02-15T07:49:08;1.47;;;1.30;;
10432;SDS011;5263;48.680;9.004;2024-02-15T07:51:34;2.67;;;1.00;;
10432;SDS011;5263;48.680;9.004;2024-02-15T07:53:59;1.83;;;0.93;;
10432;SDS011;5263;48.680;9.004;2024-02-15T07:56:26;2.60;;;0.80;;
10432;SDS011;5263;48.680;9.004;2024-02-15T07:58:52;1.77;;;0.63;;
10432;SDS011;5263;48.680;9.004;2024-02-15T08:01:17;0.63;;;0.60;;
10432;SDS011;5263;48.680;9.004;2024-02-15T08:03:46;3.13;;;0.70;;
10432;SDS011;5263;48.680;9.004;2024-02-15T08:06:12;3.83;;;0.83;;
10432;SDS011;5263;48.680;9.004;2024-02-15T08:08:40;2.13;;;0.90;;
10432;SDS011;5263;48.680;9.004;2024-02-15T08:11:13;0.83;;;0.80;;
10432;SDS011;5263;48.680;9.004;2024-02-15T08:16:10;3.10;;;1.07;;
10432;SDS011;5263;48.680;9.004;2024-02-15T08:18:37;2.57;;;0.50;;
10432;SDS011;5263;48.680;9.004;2024-02-15T08:21:04;3.90;;;0.57;;
10432;SDS011;5263;48.680;9.004;2024-02-15T08:23:29;1.27;;;0.57;;
10432;SDS011;5263;48.680;9.004;2024-02-15T08:25:55;0.80;;;0.60;;
10432;SDS011;5263;48.680;9.004;2024-02-15T08:28:22;2.07;;;0.80;;
10432;SDS011;5263;48.680;9.004;2024-02-15T08:30:48;1.57;;;0.60;;
10432;SDS011;5263;48.680;9.004;2024-02-15T08:33:13;1.27;;;0.90;;
10432;SDS011;5263;48.680;9.004;2024-02-15T08:35:39;2.43;;;0.77;;
10432;SDS011;5263;48.680;9.004;2024-02-15T08:38:06;2.80;;;0.53;;
10432;SDS011;5263;48.680;9.004;2024-02-15T08:40:32;1.40;;;0.73;;
10432;SDS011;5263;48.680;9.004;2024-02-15T08:42:57;4.57;;;0.83;;
10432;SDS011;5263;48.680;9.004;2024-02-15T08:45:23;6.47;;;0.80;;
10432;SDS011;5263;48.680;9.004;2024-02-15T08:47:49;1.23;;;0.70;;
10432;SDS011;5263;48.680;9.004;2024-02-15T08:50:17;4.00;;;0.80;;
10432;SDS011;5263;48.680;9.004;2024-02-15T08:52:44;2.00;;;0.90;;
10432;SDS011;5263;48.680;9.004;2024-02-15T08:55:09;1.70;;;0.67;;
10432;SDS011;5263;48.680;9.004;2024-02-15T08:57:39;2.07;;;0.80;;
10432;SDS011;5263;48.680;9.004;2024-02-15T09:00:06;2.00;;;0.80;;
10432;SDS011;5263;48.680;9.004;2024-02-15T09:02:48;2.20;;;1.23;;
10432;SDS011;5263;48.680;9.004;2024-02-15T09:05:17;1.80;;;0.53;;
10432;SDS011;5263;48.680;9.004;2024-02-15T09:07:44;0.70;;;0.70;;
10432;SDS011;5263;48.680;9.004;2024-02-15T09:10:13;2.13;;;0.73;;
10432;SDS011;5263;48.680;9.004;2024-02-15T09:12:40;1.83;;;0.70;;
10432;SDS011;5263;48.680;9.004;2024-02-15T09:15:07;6.93;;;0.90;;
10432;SDS011;5263;48.680;9.004;2024-02-15T09:17:34;3.80;;;1.00;;
10432;SDS011;5263;48.680;9.004;2024-02-15T09:20:05;2.53;;;0.70;;
10432;SDS011;5263;48.680;9.004;2024-02-15T09:22:32;1.70;;;0.73;;
10432;SDS011;5263;48.680;9.004;2024-02-15T09:24:57;1.10;;;0.63;;
10432;SDS011;5263;48.680;9.004;2024-02-15T09:27:23;2.07;;;0.63;;
10432;SDS011;5263;48.680;9.004;2024-02-15T09:29:48;0.93;;;0.60;;
10432;SDS011;5263;48.680;9.004;2024-02-15T09:32:22;3.63;;;0.77;;
10432;SDS011;5263;48.680;9.004;2024-02-15T09:34:51;3.13;;;0.50;;
10432;SDS011;5263;48.680;9.004;2024-02-15T09:37:19;1.73;;;0.40;;
10432;SDS011;5263;48.680;9.004;2024-02-15T09:39:46;4.67;;;0.40;;
10432;SDS011;5263;48.680;9.004;2024-02-15T09:42:12;2.60;;;0.57;;
10432;SDS011;5263;48.680;9.004;2024-02-15T09:44:38;3.03;;;0.40;;
10432;SDS011;5263;48.680;9.004;2024-02-15T09:47:05;0.50;;;0.30;;
10432;SDS011;5263;48.680;9.004;2024-02-15T09:49:37;0.83;;;0.47;;
10432;SDS011;5263;48.680;9.004;2024-02-15T09:52:07;1.07;;;0.30;;
10432;SDS011;5263;48.680;9.004;2024-02-15T09:54:40;0.47;;;0.30;;
10432;SDS011;5263;48.680;9.004;2024-02-15T09:57:09;1.23;;;0.40;;
10432;SDS011;5263;48.680;9.004;2024-02-15T09:59:38;1.53;;;0.40;;
10432;SDS011;5263;48.680;9.004;2024-02-15T10:02:05;5.10;;;1.00;;
10432;SDS011;5263;48.680;9.004;2024-02-15T10:04:36;5.10;;;1.10;;
10432;SDS011;5263;48.680;9.004;2024-02-15T10:07:02;3.77;;;1.20;;
10432;SDS011;5263;48.680;9.004;2024-02-15T10:09:31;5.30;;;1.33;;
10432;SDS011;5263;48.680;9.004;2024-02-15T10:11:58;1.97;;;1.00;;
10432;SDS011;5263;48.680;9.004;2024-02-15T10:14:25;3.40;;;1.20;;
10432;SDS011;5263;48.680;9.004;2024-02-15T10:16:53;3.80;;;1.10;;
10432;SDS011;5263;48.680;9.004;2024-02-15T10:19:22;4.23;;;1.30;;
10432;SDS011;5263;48.680;9.004;2024-02-15T10:21:52;3.33;;;1.00;;
10432;SDS011;5263;48.680;9.004;2024-02-15T10:24:21;2.33;;;1.20;;
10432;SDS011;5263;48.680;9.004;2024-02-15T10:26:50;1.53;;;1.00;;
10432;SDS011;5263;48.680;9.004;2024-02-15T10:29:16;4.67;;;1.00;;
10432;SDS011;5263;48.680;9.004;2024-02-15T10:31:55;3.47;;;1.40;;
10432;SDS011;5263;48.680;9.004;2024-02-15T10:34:28;1.10;;;0.83;;
10432;SDS011;5263;48.680;9.004;2024-02-15T10:36:55;2.50;;;0.80;;
10432;SDS011;5263;48.680;9.004;2024-02-15T10:39:34;2.47;;;1.00;;
10432;SDS011;5263;48.680;9.004;2024-02-15T10:42:00;1.93;;;0.60;;
10432;SDS011;5263;48.680;9.004;2024-02-15T10:44:26;1.73;;;1.00;;
10432;SDS011;5263;48.680;9.004;2024-02-15T10:46:53;4.37;;;0.70;;
10432;SDS011;5263;48.680;9.004;2024-02-15T10:49:22;1.73;;;0.80;;
10432;SDS011;5263;48.680;9.004;2024-02-15T10:51:55;2.70;;;0.63;;
10432;SDS011;5263;48.680;9.004;2024-02-15T10:57:21;0.20;;;0.20;;
10432;SDS011;5263;48.680;9.004;2024-02-15T11:02:25;1.70;;;0.30;;
10432;SDS011;5263;48.680;9.004;2024-02-15T11:04:54;0.53;;;0.20;;
10432;SDS011;5263;48.680;9.004;2024-02-15T11:07:28;0.73;;;0.33;;
10432;SDS011;5263;48.680;9.004;2024-02-15T11:09:55;0.57;;;0.30;;
10432;SDS011;5263;48.680;9.004;2024-02-15T11:12:22;0.80;;;0.20;;
10432;SDS011;5263;48.680;9.004;2024-02-15T11:14:49;0.57;;;0.30;;
10432;SDS011;5263;48.680;9.004;2024-02-15T11:23:13;0.47;;;0.23;;
10432;SDS011;5263;48.680;9.004;2024-02-15T11:25:49;1.77;;;0.30;;
10432;SDS011;5263;48.680;9.004;2024-02-15T11:30:52;1.60;;;0.40;;
10432;SDS011;5263;48.680;9.004;2024-02-15T11:33:28;2.03;;;0.30;;
10432;SDS011;5263;48.680;9.004;2024-02-15T11:38:34;0.40;;;0.30;;
10432;SDS011;5263;48.680;9.004;2024-02-15T11:41:01;1.57;;;0.60;;
10432;SDS011;5263;48.680;9.004;2024-02-15T11:46:26;0.73;;;0.20;;
10432;SDS011;5263;48.680;9.004;2024-02-15T11:48:55;1.47;;;0.30;;
10432;SDS011;5263;48.680;9.004;2024-02-15T11:56:53;1.07;;;0.30;;
10432;SDS011;5263;48.680;9.004;2024-02-15T11:59:38;0.33;;;0.33;;
10432;SDS011;5263;48.680;9.004;2024-02-15T12:02:18;0.53;;;0.20;;
10432;SDS011;5263;48.680;9.004;2024-02-15T12:05:05;0.50;;;0.30;;
10432;SDS011;5263;48.680;9.004;2024-02-15T12:07:50;3.90;;;0.30;;
10432;SDS011;5263;48.680;9.004;2024-02-15T12:10:34;0.40;;;0.30;;
10432;SDS011;5263;48.680;9.004;2024-02-15T12:13:18;0.10;;;0.10;;
10432;SDS011;5263;48.680;9.004;2024-02-15T12:16:03;0.80;;;0.23;;
10432;SDS011;5263;48.680;9.004;2024-02-15T12:18:48;1.13;;;0.30;;
10432;SDS011;5263;48.680;9.004;2024-02-15T12:21:18;1.83;;;0.20;;
10432;SDS011;5263;48.680;9.004;2024-02-15T12:23:48;0.30;;;0.30;;
10432;SDS011;5263;48.680;9.004;2024-02-15T12:26:18;1.43;;;0.30;;
10432;SDS011;5263;48.680;9.004;2024-02-15T12:28:44;0.60;;;0.30;;
10432;SDS011;5263;48.680;9.004;2024-02-15T12:31:22;10.10;;;0.43;;
10432;SDS011;5263;48.680;9.004;2024-02-15T12:34:03;2.40;;;0.20;;
10432;SDS011;5263;48.680;9.004;2024-02-15T12:36:35;0.30;;;0.30;;
10432;SDS011;5263;48.680;9.004;2024-02-15T12:39:03;1.83;;;0.40;;
10432;SDS011;5263;48.680;9.004;2024-02-15T12:41:37;0.30;;;0.20;;
10432;SDS011;5263;48.680;9.004;2024-02-15T12:44:05;1.00;;;0.30;;
10432;SDS011;5263;48.680;9.004;2024-02-15T12:46:32;1.40;;;0.40;;
10432;SDS011;5263;48.680;9.004;2024-02-15T12:51:50;0.47;;;0.30;;
10432;SDS011;5263;48.680;9.004;2024-02-15T12:54:19;0.40;;;0.27;;
10432;SDS011;5263;48.680;9.004;2024-02-15T12:56:46;0.47;;;0.47;;
10432;SDS011;5263;48.680;9.004;2024-02-15T12:59:18;1.50;;;0.40;;
10432;SDS011;5263;48.680;9.004;2024-02-15T13:01:48;0.40;;;0.30;;
10432;SDS011;5263;48.680;9.004;2024-02-15T13:04:21;0.60;;;0.30;;
10432;SDS011;5263;48.680;9.004;2024-02-15T13:06:50;1.30;;;0.37;;
10432;SDS011;5263;48.680;9.004;2024-02-15T13:09:16;0.93;;;0.30;;
10432;SDS011;5263;48.680;9.004;2024-02-15T13:11:41;1.00;;;0.40;;
10432;SDS011;5263;48.680;9.004;2024-02-15T13:14:10;0.40;;;0.30;;
10432;SDS011;5263;48.680;9.004;2024-02-15T13:16:36;1.03;;;0.40;;
10432;SDS011;5263;48.680;9.004;2024-02-15T13:19:03;0.83;;;0.30;;
10432;SDS011;5263;48.680;9.004;2024-02-15T13:21:31;1.00;;;0.50;;
10432;SDS011;5263;48.680;9.004;2024-02-15T13:23:59;0.60;;;0.37;;
10432;SDS011;5263;48.680;9.004;2024-02-15T13:26:30;1.57;;;0.40;;
10432;SDS011;5263;48.680;9.004;2024-02-15T13:28:57;0.90;;;0.30;;
10432;SDS011;5263;48.680;9.004;2024-02-15T13:31:23;0.63;;;0.30;;
10432;SDS011;5263;48.680;9.004;2024-02-15T13:33:48;0.73;;;0.37;;
10432;SDS011;5263;48.680;9.004;2024-02-15T13:36:14;1.30;;;0.30;;
10432;SDS011;5263;48.680;9.004;2024-02-15T13:38:40;1.20;;;0.40;;
10432;SDS011;5263;48.680;9.004;2024-02-15T13:41:07;0.77;;;0.30;;
10432;SDS011;5263;48.680;9.004;2024-02-15T13:43:33;1.00;;;0.33;;
10432;SDS011;5263;48.680;9.004;2024-02-15T13:45:59;1.80;;;0.50;;
10432;SDS011;5263;48.680;9.004;2024-02-15T13:48:27;1.90;;;0.40;;
10432;SDS011;5263;48.680;9.004;2024-02-15T13:50:55;0.67;;;0.30;;
10432;SDS011;5263;48.680;9.004;2024-02-15T13:53:20;0.43;;;0.40;;
10432;SDS011;5263;48.680;9.004;2024-02-15T13:55:46;0.57;;;0.40;;
10432;SDS011;5263;48.680;9.004;2024-02-15T13:58:12;1.63;;;0.40;;
10432;SDS011;5263;48.680;9.004;2024-02-15T14:00:38;0.77;;;0.30;;
10432;SDS011;5263;48.680;9.004;2024-02-15T14:03:07;0.50;;;0.40;;
10432;SDS011;5263;48.680;9.004;2024-02-15T14:05:35;0.90;;;0.30;;
10432;SDS011;5263;48.680;9.004;2024-02-15T14:08:04;0.67;;;0.40;;
10432;SDS011;5263;48.680;9.004;2024-02-15T14:10:31;0.50;;;0.40;;
10432;SDS011;5263;48.680;9.004;2024-02-15T14:13:00;1.40;;;0.30;;
10432;SDS011;5263;48.680;9.004;2024-02-15T14:15:30;0.50;;;0.40;;
10432;SDS011;5263;48.680;9.004;2024-02-15T14:17:59;1.80;;;0.50;;
10432;SDS011;5263;48.680;9.004;2024-02-15T14:20:26;0.67;;;0.40;;
10432;SDS011;5263;48.680;9.004;2024-02-15T14:22:53;0.40;;;0.40;;
10432;SDS011;5263;48.680;9.004;2024-02-15T14:25:22;1.53;;;0.30;;
10432;SDS011;5263;48.680;9.004;2024-02-15T14:27:50;1.03;;;0.40;;
10432;SDS011;5263;48.680;9.004;2024-02-15T14:30:18;3.63;;;0.53;;
10432;SDS011;5263;48.680;9.004;2024-02-15T14:33:03;1.43;;;0.50;;
10432;SDS011;5263;48.680;9.004;2024-02-15T14:35:32;0.33;;;0.33;;
10432;SDS011;5263;48.680;9.004;2024-02-15T14:38:08;1.43;;;0.50;;
10432;SDS011;5263;48.680;9.004;2024-02-15T14:40:39;0.70;;;0.50;;
10432;SDS011;5263;48.680;9.004;2024-02-15T14:43:20;0.80;;;0.40;;
10432;SDS011;5263;48.680;9.004;2024-02-15T14:45:46;0.60;;;0.50;;
10432;SDS011;5263;48.680;9.004;2024-02-15T14:48:12;2.47;;;0.50;;
10432;SDS011;5263;48.680;9.004;2024-02-15T14:50:39;0.90;;;0.40;;
10432;SDS011;5263;48.680;9.004;2024-02-15T14:53:05;0.77;;;0.43;;
10432;SDS011;5263;48.680;9.004;2024-02-15T14:55:32;0.97;;;0.47;;
10432;SDS011;5263;48.680;9.004;2024-02-15T14:57:59;0.70;;;0.60;;
10432;SDS011;5263;48.680;9.004;2024-02-15T15:00:24;0.87;;;0.40;;
10432;SDS011;5263;48.680;9.004;2024-02-15T15:02:51;1.07;;;0.43;;
10432;SDS011;5263;48.680;9.004;2024-02-15T15:05:19;1.20;;;0.40;;
10432;SDS011;5263;48.680;9.004;2024-02-15T15:08:03;1.23;;;0.43;;
10432;SDS011;5263;48.680;9.004;2024-02-15T15:10:48;0.30;;;0.30;;
10432;SDS011;5263;48.680;9.004;2024-02-15T15:13:32;1.57;;;0.30;;
10432;SDS011;5263;48.680;9.004;2024-02-15T15:15:58;4.50;;;0.50;;
10432;SDS011;5263;48.680;9.004;2024-02-15T15:18:25;0.30;;;0.30;;
10432;SDS011;5263;48.680;9.004;2024-02-15T15:20:51;1.53;;;0.40;;
10432;SDS011;5263;48.680;9.004;2024-02-15T15:23:16;0.57;;;0.30;;
10432;SDS011;5263;48.680;9.004;2024-02-15T15:25:42;1.73;;;0.40;;
10432;SDS011;5263;48.680;9.004;2024-02-15T15:28:08;0.40;;;0.40;;
10432;SDS011;5263;48.680;9.004;2024-02-15T15:30:34;2.17;;;0.50;;
10432;SDS011;5263;48.680;9.004;2024-02-15T15:32:59;3.20;;;0.30;;
10432;SDS011;5263;48.680;9.004;2024-02-15T15:35:28;1.00;;;0.37;;
10432;SDS011;5263;48.680;9.004;2024-02-15T15:37:54;1.80;;;0.50;;